Time;durP1;ratioP1;P1;durP2;ratioP2;P2;SDS_P1;SDS_P2;PMS_P1;PMS_P2;Temp;Humidity;BMP_temperature;BMP_pressure;BME280_temperature;BME280_humidity;BME280_pressure;Samples;Min_cycle;Max_cycle;Signal;HPM_P1;HPM_P2
2022/01/15 00:01:05;;;;;;;8.98;5.50;;;7.60;81.00;;;;;;4876639;29;20053;-79
2022/01/15 00:03:31;;;;;;;8.45;5.90;;;7.70;81.10;;;;;;4880851;29;20216;-79
2022/01/15 00:05:57;;;;;;;6.82;5.15;;;7.60;81.00;;;;;;4883685;29;20056;-79
2022/01/15 00:08:23;;;;;;;7.28;4.93;;;7.60;80.90;;;;;;4872524;29;20052;-79
2022/01/15 00:10:49;;;;;;;7.80;4.90;;;7.60;80.90;;;;;;4873378;29;20493;-79
2022/01/15 00:13:25;;;;;;;7.85;5.35;;;7.70;81.00;;;;;;4868018;29;20045;-79
2022/01/15 00:16:02;;;;;;;8.15;4.90;;;7.80;81.10;;;;;;4850941;29;20057;-79
2022/01/15 00:21:13;;;;;;;9.10;5.90;;;7.60;81.00;;;;;;4887219;29;20053;-79
2022/01/15 00:23:39;;;;;;;7.45;5.40;;;7.60;80.90;;;;;;4915044;29;20045;-78
2022/01/15 00:26:05;;;;;;;7.35;5.30;;;7.60;80.90;;;;;;4914679;29;20059;-78
2022/01/15 00:28:31;;;;;;;8.32;5.60;;;7.60;80.90;;;;;;4896726;29;20491;-78
2022/01/15 00:30:56;;;;;;;8.43;5.82;;;7.60;80.90;;;;;;4914914;29;20289;-78
2022/01/15 00:33:24;;;;;;;8.32;6.38;;;7.60;80.90;;;;;;4914946;29;20044;-78
2022/01/15 00:35:50;;;;;;;9.88;6.95;;;7.60;80.90;;;;;;4913411;29;20148;-79
2022/01/15 00:38:15;;;;;;;9.85;6.55;;;7.60;80.80;;;;;;4914641;29;20129;-78
2022/01/15 00:40:41;;;;;;;8.30;5.72;;;7.60;80.70;;;;;;4914311;29;20507;-79
2022/01/15 00:43:07;;;;;;;7.40;5.57;;;7.60;80.70;;;;;;4915367;29;20430;-78
2022/01/15 00:45:33;;;;;;;6.75;5.45;;;7.60;80.70;;;;;;4897510;29;20400;-79
2022/01/15 00:47:59;;;;;;;8.40;6.47;;;7.60;80.70;;;;;;4914676;29;20040;-79
2022/01/15 00:50:25;;;;;;;8.27;6.30;;;7.60;80.70;;;;;;4917555;29;20040;-78
2022/01/15 00:52:51;;;;;;;7.88;6.15;;;7.60;80.70;;;;;;4901469;29;20548;-79
2022/01/15 00:55:18;;;;;;;10.23;7.65;;;7.60;80.70;;;;;;4901203;29;20044;-78
2022/01/15 00:57:44;;;;;;;9.27;6.72;;;7.60;80.70;;;;;;4900953;29;20040;-78
2022/01/15 01:00:14;;;;;;;8.70;6.30;;;7.60;80.70;;;;;;4900903;29;20147;-78
2022/01/15 01:02:39;;;;;;;8.73;6.35;;;7.60;80.70;;;;;;4924964;29;20495;-79
2022/01/15 01:05:05;;;;;;;7.88;5.40;;;7.60;80.70;;;;;;4897479;29;20061;-78
2022/01/15 01:07:31;;;;;;;9.27;6.30;;;7.60;80.70;;;;;;4898201;29;20484;-79
2022/01/15 01:23:12;;;;;;;8.20;5.40;;;7.60;80.70;;;;;;4897351;29;20044;-78
2022/01/15 01:25:45;;;;;;;7.05;5.32;;;7.60;80.80;;;;;;4881529;29;20083;-78
2022/01/15 01:28:30;;;;;;;6.50;4.82;;;7.60;80.70;;;;;;4898703;29;20059;-79
2022/01/15 01:31:07;;;;;;;7.80;5.40;;;8.00;81.00;;;;;;4897672;29;20432;-79
2022/01/15 01:33:37;;;;;;;6.45;5.00;;;7.60;80.70;;;;;;4898696;29;20084;-78
2022/01/15 01:39:07;;;;;;;7.90;5.60;;;7.60;80.70;;;;;;4880805;29;20092;-78
2022/01/15 01:41:36;;;;;;;6.20;4.75;;;7.60;80.70;;;;;;4895561;29;20064;-78
2022/01/15 01:44:04;;;;;;;6.68;4.93;;;7.60;80.60;;;;;;4893387;29;20037;-79
2022/01/15 01:46:44;;;;;;;7.78;5.18;;;7.60;80.60;;;;;;4891694;29;20049;-78
2022/01/15 01:49:13;;;;;;;7.32;5.18;;;7.60;80.60;;;;;;4891913;29;20524;-79
2022/01/15 01:51:39;;;;;;;6.95;5.00;;;7.70;80.70;;;;;;4892398;29;20040;-79
2022/01/15 01:54:10;;;;;;;6.93;5.70;;;7.50;80.60;;;;;;4895199;29;20401;-79
2022/01/15 01:56:37;;;;;;;7.25;5.20;;;7.60;80.60;;;;;;4887068;29;20047;-78
2022/01/15 01:59:04;;;;;;;6.63;5.30;;;7.60;80.60;;;;;;4874999;29;20048;-79
2022/01/15 02:01:30;;;;;;;8.07;5.55;;;7.60;80.60;;;;;;4874246;29;20049;-79
2022/01/15 02:03:56;;;;;;;8.75;5.80;;;7.60;80.60;;;;;;4888438;29;20057;-79
2022/01/15 02:06:21;;;;;;;7.63;5.85;;;7.60;80.60;;;;;;4878807;29;21791;-79
2022/01/15 02:08:50;;;;;;;8.93;5.97;;;7.60;80.60;;;;;;4895032;29;20063;-78
2022/01/15 02:11:17;;;;;;;8.10;5.35;;;7.60;80.60;;;;;;4878602;29;20045;-78
2022/01/15 02:13:45;;;;;;;6.72;5.38;;;7.60;80.60;;;;;;4875592;29;20412;-79
2022/01/15 02:16:11;;;;;;;8.10;5.47;;;7.60;80.70;;;;;;4896257;29;20396;-78
2022/01/15 02:18:37;;;;;;;6.47;4.82;;;7.60;80.60;;;;;;4912921;29;20393;-78
2022/01/15 02:23:44;;;;;;;7.30;5.43;;;7.60;80.50;;;;;;4897570;29;20075;-79
2022/01/15 02:26:16;;;;;;;7.07;4.53;;;7.50;80.50;;;;;;4921112;29;20057;-78
2022/01/15 02:29:00;;;;;;;6.50;4.88;;;7.50;80.50;;;;;;4896101;29;20088;-78
2022/01/15 02:31:28;;;;;;;7.93;4.88;;;7.50;80.50;;;;;;4895337;29;20060;-78
2022/01/15 02:33:57;;;;;;;6.80;4.80;;;7.50;80.50;;;;;;4897991;29;20108;-78
2022/01/15 02:36:25;;;;;;;6.07;4.40;;;7.50;80.50;;;;;;4896525;29;20059;-79
2022/01/15 02:38:52;;;;;;;7.85;4.70;;;7.60;80.50;;;;;;4895324;29;20044;-78
2022/01/15 02:41:32;;;;;;;6.15;4.55;;;7.70;80.60;;;;;;4926524;29;20628;-78
2022/01/15 02:44:00;;;;;;;6.53;4.60;;;7.50;80.50;;;;;;4897847;29;20044;-78
2022/01/15 02:48:58;;;;;;;6.22;4.70;;;7.50;80.40;;;;;;4895016;29;20131;-78
2022/01/15 02:51:29;;;;;;;6.00;4.55;;;7.50;80.40;;;;;;4893446;29;20040;-78
2022/01/15 02:53:56;;;;;;;6.10;4.20;;;7.50;80.40;;;;;;4897683;29;20076;-78
2022/01/15 02:56:27;;;;;;;5.78;4.35;;;7.50;80.40;;;;;;4911819;29;20044;-79
2022/01/15 02:58:53;;;;;;;5.60;3.92;;;7.50;80.40;;;;;;4910736;29;20048;-79
2022/01/15 03:01:20;;;;;;;6.47;4.25;;;7.50;80.40;;;;;;4897410;29;20040;-78
2022/01/15 03:03:45;;;;;;;5.82;3.78;;;7.50;80.40;;;;;;4904817;29;20392;-78
2022/01/15 03:06:13;;;;;;;6.55;3.75;;;7.50;80.40;;;;;;4914827;29;20152;-79
2022/01/15 03:08:44;;;;;;;5.07;3.67;;;7.50;80.40;;;;;;4915646;29;20111;-78
2022/01/15 03:11:11;;;;;;;5.57;3.78;;;7.60;80.50;;;;;;4912727;29;20391;-78
2022/01/15 03:13:38;;;;;;;6.43;4.22;;;7.50;80.30;;;;;;4898881;29;20127;-78
2022/01/15 03:16:05;;;;;;;5.03;3.95;;;7.50;80.20;;;;;;4915887;29;20063;-78
2022/01/15 03:18:31;;;;;;;5.18;3.78;;;7.50;80.10;;;;;;4916063;29;20052;-78
2022/01/15 03:20:56;;;;;;;5.18;3.72;;;7.60;80.20;;;;;;4915393;29;20044;-78
2022/01/15 03:23:22;;;;;;;5.53;3.85;;;7.50;80.10;;;;;;4899301;29;20483;-78
2022/01/15 03:25:48;;;;;;;5.90;4.43;;;7.50;80.20;;;;;;4915542;29;20127;-78
2022/01/15 03:28:13;;;;;;;5.30;3.42;;;7.60;80.30;;;;;;4915670;29;20051;-78
2022/01/15 03:30:40;;;;;;;5.00;3.50;;;7.50;80.20;;;;;;4898640;29;20131;-77
2022/01/15 03:33:06;;;;;;;6.15;4.18;;;7.50;80.20;;;;;;4915411;29;20141;-78
2022/01/15 03:35:33;;;;;;;5.35;4.10;;;7.50;80.30;;;;;;4899562;29;20054;-78
2022/01/15 03:37:58;;;;;;;4.78;3.53;;;7.50;80.30;;;;;;4914862;29;20169;-79
2022/01/15 03:40:24;;;;;;;5.30;3.50;;;7.50;80.20;;;;;;4915864;29;20288;-79
2022/01/15 03:42:50;;;;;;;5.20;3.60;;;7.50;80.20;;;;;;4900311;29;20457;-78
2022/01/15 03:45:16;;;;;;;5.03;3.63;;;7.50;80.20;;;;;;4898485;29;20080;-78
2022/01/15 03:47:45;;;;;;;5.13;3.58;;;7.50;80.20;;;;;;4915437;29;20048;-78
2022/01/15 03:50:11;;;;;;;5.03;3.20;;;7.50;80.20;;;;;;4898029;29;20056;-78
2022/01/15 03:52:38;;;;;;;5.35;3.15;;;7.60;80.30;;;;;;4899129;29;20044;-78
2022/01/15 03:55:06;;;;;;;5.70;3.53;;;7.50;80.20;;;;;;4897824;29;20040;-78
2022/01/15 03:57:32;;;;;;;4.70;3.70;;;7.50;80.20;;;;;;4903378;29;20084;-78
2022/01/15 03:59:59;;;;;;;5.53;3.65;;;7.50;80.20;;;;;;4915267;29;20044;-78
2022/01/15 04:02:24;;;;;;;4.97;3.10;;;7.70;80.30;;;;;;4897174;29;20051;-78
2022/01/15 04:04:50;;;;;;;4.05;2.75;;;7.50;80.10;;;;;;4913323;29;20063;-78
2022/01/15 04:07:16;;;;;;;4.75;3.20;;;7.50;80.10;;;;;;4915217;29;20036;-78
2022/01/15 04:09:42;;;;;;;4.97;3.30;;;7.50;80.10;;;;;;4915200;29;20399;-77
2022/01/15 04:12:07;;;;;;;4.20;2.83;;;7.50;80.10;;;;;;4914185;29;20424;-78
2022/01/15 04:14:33;;;;;;;5.43;3.60;;;7.50;80.10;;;;;;4896281;29;20051;-78
2022/01/15 04:16:59;;;;;;;5.75;3.47;;;7.50;80.00;;;;;;4916017;29;20036;-79
2022/01/15 04:19:25;;;;;;;5.20;3.17;;;7.50;80.00;;;;;;4898540;29;20447;-79
2022/01/15 04:21:51;;;;;;;5.25;3.75;;;7.50;80.00;;;;;;4898432;29;20514;-79
2022/01/15 04:24:17;;;;;;;5.13;3.08;;;7.50;79.90;;;;;;4898271;29;20048;-79
2022/01/15 04:26:43;;;;;;;6.65;3.17;;;7.50;79.90;;;;;;4914358;29;20098;-79
2022/01/15 04:29:09;;;;;;;4.85;3.33;;;7.80;80.10;;;;;;4914894;29;20768;-79
2022/01/15 04:31:48;;;;;;;5.15;3.30;;;7.50;79.90;;;;;;4915185;29;20485;-78
2022/01/15 04:34:16;;;;;;;5.43;3.35;;;7.50;80.00;;;;;;4897543;29;20052;-79
2022/01/15 04:36:43;;;;;;;4.60;2.92;;;7.50;80.00;;;;;;4914324;29;20044;-78
2022/01/15 04:39:09;;;;;;;4.43;2.67;;;7.50;80.00;;;;;;4914082;29;20488;-79
2022/01/15 04:41:35;;;;;;;4.55;2.80;;;7.50;80.00;;;;;;4915070;29;20051;-78
2022/01/15 04:44:01;;;;;;;4.93;2.92;;;7.50;80.00;;;;;;4897055;29;20051;-79
2022/01/15 04:46:26;;;;;;;4.53;2.70;;;7.50;80.00;;;;;;4913272;29;20056;-78
2022/01/15 04:48:52;;;;;;;3.92;2.83;;;7.40;79.90;;;;;;4897853;29;20059;-78
2022/01/15 04:51:18;;;;;;;3.90;2.70;;;7.40;79.90;;;;;;4912862;29;20555;-79
2022/01/15 04:53:43;;;;;;;4.28;2.88;;;7.50;79.90;;;;;;4914517;29;20051;-78
2022/01/15 04:56:09;;;;;;;3.47;2.33;;;7.50;79.90;;;;;;4914456;29;20495;-78
2022/01/15 04:58:34;;;;;;;3.95;2.40;;;7.50;79.90;;;;;;4896786;29;20111;-78
2022/01/15 05:01:00;;;;;;;4.13;2.88;;;7.50;79.90;;;;;;4914942;29;20132;-78
2022/01/15 05:03:26;;;;;;;3.63;2.25;;;7.50;79.90;;;;;;4913057;29;20583;-78
2022/01/15 05:05:51;;;;;;;4.10;2.67;;;7.50;79.90;;;;;;4914787;29;20052;-78
2022/01/15 05:08:17;;;;;;;3.60;2.50;;;7.50;79.90;;;;;;4897623;29;20048;-79
2022/01/15 05:10:47;;;;;;;4.07;2.40;;;7.70;80.10;;;;;;4914632;29;20080;-78
2022/01/15 05:13:14;;;;;;;6.03;2.47;;;7.50;79.90;;;;;;4897562;29;20040;-79
2022/01/15 05:15:44;;;;;;;3.70;2.70;;;7.50;79.90;;;;;;4914309;29;20085;-79
2022/01/15 05:18:10;;;;;;;4.88;3.15;;;7.40;79.80;;;;;;4896906;29;20437;-79
2022/01/15 05:20:40;;;;;;;3.85;2.50;;;7.50;79.90;;;;;;4914140;29;20131;-79
2022/01/15 05:23:06;;;;;;;3.90;2.33;;;7.50;79.80;;;;;;4914889;29;20099;-79
2022/01/15 05:25:32;;;;;;;4.05;2.60;;;7.40;79.60;;;;;;4914451;29;20052;-79
2022/01/15 05:27:58;;;;;;;4.85;2.30;;;7.40;79.50;;;;;;4915108;29;20047;-78
2022/01/15 05:30:23;;;;;;;3.67;2.20;;;7.40;79.30;;;;;;4911975;29;20055;-78
2022/01/15 05:32:49;;;;;;;4.25;2.50;;;7.40;79.20;;;;;;4896945;29;20036;-78
2022/01/15 05:35:14;;;;;;;3.92;2.65;;;7.40;79.10;;;;;;4899168;29;20087;-79
2022/01/15 05:37:40;;;;;;;3.78;2.47;;;7.40;78.90;;;;;;4901152;29;20044;-79
2022/01/15 05:40:07;;;;;;;3.90;2.70;;;7.30;78.80;;;;;;4915736;29;20096;-79
2022/01/15 05:42:33;;;;;;;3.85;2.13;;;7.30;79.00;;;;;;4900190;29;20048;-79
2022/01/15 05:44:58;;;;;;;3.53;2.40;;;7.20;79.10;;;;;;4900569;29;20143;-79
2022/01/15 05:47:24;;;;;;;4.40;2.35;;;7.20;79.20;;;;;;4918071;29;20387;-79
2022/01/15 05:49:51;;;;;;;4.03;2.28;;;7.30;79.30;;;;;;4917634;29;20459;-79
2022/01/15 05:52:16;;;;;;;3.20;1.80;;;7.30;79.40;;;;;;4929214;29;20055;-79
2022/01/15 05:54:42;;;;;;;4.22;2.30;;;7.20;79.30;;;;;;4917472;29;20040;-79
2022/01/15 05:57:08;;;;;;;3.58;2.30;;;7.30;79.40;;;;;;4899142;29;20133;-79
2022/01/15 05:59:34;;;;;;;3.67;2.00;;;7.20;79.30;;;;;;4898997;29;20096;-79
2022/01/15 06:02:00;;;;;;;4.00;2.35;;;7.20;79.20;;;;;;4901499;29;20048;-79
2022/01/15 06:04:25;;;;;;;4.70;2.10;;;7.20;79.10;;;;;;4898859;29;20515;-79
2022/01/15 06:06:51;;;;;;;3.17;2.10;;;7.20;79.10;;;;;;4925583;29;20071;-79
2022/01/15 06:09:17;;;;;;;5.35;2.38;;;7.20;79.20;;;;;;4900323;29;20052;-79
2022/01/15 06:11:43;;;;;;;3.53;2.10;;;7.20;79.20;;;;;;4899667;29;20048;-79
2022/01/15 06:14:09;;;;;;;3.65;2.30;;;7.20;79.20;;;;;;4899430;29;20514;-78
2022/01/15 06:16:36;;;;;;;4.18;2.20;;;7.10;79.00;;;;;;4916607;29;20044;-79
2022/01/15 06:19:02;;;;;;;3.88;2.00;;;7.10;79.00;;;;;;4899716;29;20048;-80
2022/01/15 06:21:29;;;;;;;4.07;2.33;;;7.10;79.10;;;;;;4915688;29;20617;-79
2022/01/15 06:23:54;;;;;;;3.75;2.28;;;7.10;79.20;;;;;;4899571;29;20087;-79
2022/01/15 06:26:20;;;;;;;3.05;2.08;;;7.10;79.00;;;;;;4898033;29;20178;-78
2022/01/15 06:28:46;;;;;;;3.78;2.53;;;7.10;79.00;;;;;;4915118;29;20160;-80
2022/01/15 06:31:12;;;;;;;3.70;2.50;;;7.10;79.00;;;;;;4916028;29;20070;-79
2022/01/15 06:33:38;;;;;;;3.70;2.30;;;7.10;79.00;;;;;;4916949;29;20051;-79
2022/01/15 06:36:03;;;;;;;3.40;2.28;;;7.00;78.90;;;;;;4913421;29;20052;-79
2022/01/15 06:38:29;;;;;;;5.60;2.97;;;7.00;78.80;;;;;;4916762;29;20131;-79
2022/01/15 06:40:55;;;;;;;5.03;2.80;;;7.00;78.70;;;;;;4916412;29;20144;-79
2022/01/15 06:43:20;;;;;;;4.13;2.60;;;6.90;78.60;;;;;;4915847;29;20040;-79
2022/01/15 06:45:46;;;;;;;3.67;2.45;;;6.90;78.40;;;;;;4914309;29;20044;-79
2022/01/15 06:48:12;;;;;;;4.97;3.03;;;6.90;78.50;;;;;;4915487;29;20099;-79
2022/01/15 06:50:37;;;;;;;3.88;2.70;;;6.80;78.50;;;;;;4914848;29;20060;-80
2022/01/15 06:53:04;;;;;;;3.58;2.47;;;6.80;78.50;;;;;;4899471;29;20028;-79
2022/01/15 06:55:29;;;;;;;4.20;2.85;;;6.80;78.60;;;;;;4915853;29;20095;-79
2022/01/15 06:57:56;;;;;;;4.45;2.88;;;6.80;78.70;;;;;;4914817;29;20044;-79
2022/01/15 07:00:24;;;;;;;5.45;3.40;;;6.80;78.60;;;;;;4915726;29;20040;-80
2022/01/15 07:02:49;;;;;;;4.88;3.10;;;6.70;78.60;;;;;;4915799;29;20068;-80
2022/01/15 07:05:15;;;;;;;4.97;3.30;;;6.70;78.60;;;;;;4915923;29;20087;-79
2022/01/15 07:07:45;;;;;;;5.93;3.50;;;6.70;78.70;;;;;;4913881;29;20123;-79
2022/01/15 07:10:10;;;;;;;5.03;3.10;;;6.90;78.90;;;;;;4915655;29;20487;-79
2022/01/15 07:12:36;;;;;;;4.63;3.08;;;6.60;78.70;;;;;;4913456;29;20051;-79
2022/01/15 07:15:03;;;;;;;6.03;3.78;;;6.80;79.30;;;;;;4915662;29;20041;-79
2022/01/15 07:17:28;;;;;;;5.55;3.47;;;6.50;78.70;;;;;;4898749;29;20048;-79
2022/01/15 07:19:54;;;;;;;5.10;3.20;;;6.50;78.80;;;;;;4916254;29;20044;-78
2022/01/15 07:22:20;;;;;;;4.90;3.10;;;6.40;79.30;;;;;;4899480;29;20121;-79
2022/01/15 07:24:45;;;;;;;4.93;2.88;;;6.40;79.10;;;;;;4915615;29;20505;-79
2022/01/15 07:27:11;;;;;;;4.47;2.85;;;6.40;79.20;;;;;;4915389;29;20384;-79
2022/01/15 07:29:38;;;;;;;4.63;3.00;;;6.40;79.10;;;;;;4900248;29;20123;-80
2022/01/15 07:32:04;;;;;;;6.57;3.58;;;6.30;79.20;;;;;;4898317;29;20052;-79
2022/01/15 07:34:31;;;;;;;5.32;3.67;;;6.30;79.60;;;;;;4915644;29;20123;-79
2022/01/15 07:36:57;;;;;;;7.45;4.35;;;6.30;79.30;;;;;;4914971;29;20044;-79
2022/01/15 07:39:24;;;;;;;6.65;4.43;;;6.60;79.50;;;;;;4898965;29;20055;-78
2022/01/15 07:41:50;;;;;;;7.35;4.22;;;6.30;79.40;;;;;;4922660;29;20388;-79
2022/01/15 07:44:16;;;;;;;6.38;3.85;;;6.30;79.50;;;;;;4898646;29;20055;-79
2022/01/15 07:46:41;;;;;;;7.80;4.38;;;6.20;79.50;;;;;;4915612;29;20036;-79
2022/01/15 07:49:07;;;;;;;6.70;4.03;;;6.20;79.50;;;;;;4915162;29;20135;-78
2022/01/15 07:51:33;;;;;;;6.40;4.05;;;6.20;79.60;;;;;;4913853;29;20084;-79
2022/01/15 07:53:59;;;;;;;7.57;4.13;;;6.20;79.50;;;;;;4915310;29;20052;-80
2022/01/15 07:56:24;;;;;;;7.88;5.32;;;6.40;79.80;;;;;;4914038;29;20047;-79
2022/01/15 07:58:50;;;;;;;6.97;4.00;;;6.10;79.70;;;;;;4914311;29;20039;-80
2022/01/15 08:01:17;;;;;;;7.88;5.25;;;6.10;79.90;;;;;;4914572;29;20076;-80
2022/01/15 08:03:43;;;;;;;7.45;4.47;;;6.10;80.00;;;;;;4914120;29;20075;-80
2022/01/15 08:06:10;;;;;;;8.18;4.55;;;6.10;80.00;;;;;;4915729;29;20488;-80
2022/01/15 08:08:36;;;;;;;9.63;5.20;;;6.10;80.10;;;;;;4915392;29;20044;-80
2022/01/15 08:11:02;;;;;;;11.40;4.82;;;6.10;80.20;;;;;;4883229;29;20051;-80
2022/01/15 08:13:31;;;;;;;8.23;4.15;;;6.10;80.20;;;;;;4914524;29;20044;-80
2022/01/15 08:16:01;;;;;;;7.65;4.38;;;6.00;80.40;;;;;;4915120;29;20110;-80
2022/01/15 08:18:27;;;;;;;6.80;3.83;;;6.00;80.20;;;;;;4914852;29;20032;-79
2022/01/15 08:20:53;;;;;;;7.50;4.35;;;6.00;80.20;;;;;;4917183;29;20047;-80
2022/01/15 08:23:18;;;;;;;6.75;4.03;;;6.00;80.20;;;;;;4916646;29;20191;-79
2022/01/15 08:25:44;;;;;;;7.60;4.10;;;6.00;80.30;;;;;;4907376;29;20504;-79
2022/01/15 08:28:10;;;;;;;8.73;4.82;;;6.00;80.30;;;;;;4899757;29;20099;-79
2022/01/15 08:30:36;;;;;;;8.43;4.60;;;5.90;80.20;;;;;;4916778;29;20127;-79
2022/01/15 08:33:01;;;;;;;9.23;5.50;;;5.90;80.30;;;;;;4916585;29;20472;-78
2022/01/15 08:35:28;;;;;;;9.13;5.38;;;6.20;80.40;;;;;;4915061;29;20047;-78
2022/01/15 08:37:54;;;;;;;10.52;6.22;;;5.90;80.40;;;;;;4914690;29;20056;-79
2022/01/15 08:40:21;;;;;;;11.52;6.53;;;5.80;80.40;;;;;;4897386;29;20048;-79
2022/01/15 08:42:48;;;;;;;13.00;6.95;;;5.80;80.40;;;;;;4915987;29;20522;-80
2022/01/15 08:45:15;;;;;;;12.70;6.90;;;5.90;80.60;;;;;;4915723;29;20088;-79
2022/01/15 08:47:41;;;;;;;15.57;7.60;;;5.80;80.60;;;;;;4915227;29;20097;-79
2022/01/15 08:50:11;;;;;;;12.48;7.25;;;5.80;80.70;;;;;;4915379;29;20044;-79
2022/01/15 08:52:38;;;;;;;16.27;8.95;;;5.80;80.80;;;;;;4916402;29;20062;-78
2022/01/15 08:55:05;;;;;;;15.35;9.07;;;5.80;80.90;;;;;;4915826;29;20052;-79
2022/01/15 08:57:30;;;;;;;16.42;8.77;;;5.80;80.90;;;;;;4909469;29;20049;-78
2022/01/15 08:59:56;;;;;;;13.77;7.75;;;5.80;80.90;;;;;;4910973;29;20491;-78
2022/01/15 09:02:22;;;;;;;14.90;9.38;;;6.10;81.10;;;;;;4913312;29;20052;-78
2022/01/15 09:04:47;;;;;;;15.80;9.48;;;5.80;80.90;;;;;;4915356;29;20058;-79
2022/01/15 09:07:14;;;;;;;19.73;10.07;;;5.80;80.90;;;;;;4915591;29;20071;-79
2022/01/15 09:09:40;;;;;;;19.88;10.80;;;5.80;80.90;;;;;;4915055;29;20119;-79
2022/01/15 09:12:06;;;;;;;20.13;10.45;;;5.70;80.80;;;;;;4919410;29;20040;-79
2022/01/15 09:14:32;;;;;;;17.60;10.82;;;5.70;80.70;;;;;;4918922;29;20052;-80
2022/01/15 09:16:58;;;;;;;19.63;10.90;;;5.70;80.80;;;;;;4919114;29;20047;-79
2022/01/15 09:19:24;;;;;;;21.95;12.05;;;5.70;80.80;;;;;;4917518;29;20040;-80
2022/01/15 09:21:50;;;;;;;21.63;13.00;;;5.70;80.80;;;;;;4918767;29;20040;-79
2022/01/15 09:24:15;;;;;;;22.27;12.30;;;5.70;80.80;;;;;;4919783;29;20044;-79
2022/01/15 09:27:00;;;;;;;23.10;12.82;;;5.90;80.90;;;;;;4919853;29;20098;-80
2022/01/15 09:32:10;;;;;;;23.35;12.38;;;5.60;80.70;;;;;;4919333;29;20044;-80
2022/01/15 09:34:37;;;;;;;23.55;13.02;;;5.60;80.80;;;;;;4901777;29;20111;-80
2022/01/15 09:37:05;;;;;;;22.08;12.40;;;5.60;80.90;;;;;;4919967;29;20059;-80
2022/01/15 09:39:31;;;;;;;22.23;13.00;;;5.60;81.10;;;;;;4918322;29;20554;-78
2022/01/15 09:41:56;;;;;;;22.60;12.68;;;5.60;81.20;;;;;;4928255;29;20055;-80
2022/01/15 09:44:24;;;;;;;23.13;12.52;;;5.70;81.30;;;;;;4919487;29;20399;-77
2022/01/15 09:46:50;;;;;;;20.75;12.38;;;5.60;81.20;;;;;;4919143;29;20051;-77
2022/01/15 09:49:18;;;;;;;19.50;12.20;;;5.70;81.30;;;;;;4909207;29;20068;-77
2022/01/15 09:51:45;;;;;;;21.92;11.85;;;5.70;81.20;;;;;;4913785;29;20040;-80
2022/01/15 09:54:16;;;;;;;19.63;12.52;;;5.70;81.20;;;;;;4919196;29;20047;-80
2022/01/15 09:56:43;;;;;;;21.65;11.77;;;5.80;81.20;;;;;;4911524;29;20053;-80
2022/01/15 09:59:10;;;;;;;19.73;11.60;;;6.10;81.40;;;;;;4909365;29;20087;-80
2022/01/15 10:01:37;;;;;;;19.25;11.95;;;5.80;81.10;;;;;;4907025;29;20048;-76
2022/01/15 10:04:03;;;;;;;17.95;11.32;;;5.70;81.00;;;;;;4915410;29;20055;-77
2022/01/15 10:06:28;;;;;;;16.25;10.48;;;5.70;81.10;;;;;;4913810;29;20489;-77
2022/01/15 10:09:04;;;;;;;17.60;11.00;;;5.80;81.50;;;;;;4929484;29;20051;-78
2022/01/15 10:11:45;;;;;;;16.42;9.63;;;5.80;81.20;;;;;;4912081;29;20057;-78
2022/01/15 10:14:28;;;;;;;14.82;9.18;;;5.90;81.20;;;;;;4907804;29;20041;-78
2022/01/15 10:16:55;;;;;;;16.02;9.55;;;5.80;81.00;;;;;;4913002;29;20468;-77
2022/01/15 10:19:36;;;;;;;15.00;9.50;;;5.70;80.70;;;;;;4905519;29;20420;-78
2022/01/15 10:22:08;;;;;;;18.17;11.02;;;5.80;80.80;;;;;;4904803;29;20079;-78
2022/01/15 10:24:34;;;;;;;15.13;9.80;;;5.70;80.70;;;;;;4911295;29;20044;-78
2022/01/15 10:27:18;;;;;;;14.32;9.38;;;5.70;80.70;;;;;;4910599;29;20048;-79
2022/01/15 10:30:03;;;;;;;15.40;10.05;;;5.70;80.70;;;;;;4907218;29;20052;-78
2022/01/15 10:32:30;;;;;;;15.25;10.10;;;5.70;80.60;;;;;;4903799;29;20453;-78
2022/01/15 10:34:57;;;;;;;14.85;9.30;;;5.70;80.60;;;;;;4917879;29;20079;-77
2022/01/15 10:37:34;;;;;;;15.15;9.45;;;5.60;80.60;;;;;;4916968;29;20488;-77
2022/01/15 10:40:10;;;;;;;15.43;10.43;;;5.70;80.80;;;;;;4917409;29;20044;-77
2022/01/15 10:42:36;;;;;;;12.73;8.43;;;5.60;80.90;;;;;;4900589;29;20389;-78
2022/01/15 10:45:13;;;;;;;13.30;8.98;;;5.60;80.80;;;;;;4916320;29;20064;-78
2022/01/15 10:47:48;;;;;;;13.43;8.52;;;5.70;80.90;;;;;;4915757;29;20108;-78
2022/01/15 10:50:28;;;;;;;12.45;8.23;;;5.70;80.80;;;;;;4900113;29;20420;-78
2022/01/15 10:52:56;;;;;;;14.90;8.98;;;5.60;80.60;;;;;;4897642;29;20130;-78
2022/01/15 10:55:29;;;;;;;13.82;9.15;;;5.60;80.70;;;;;;4917942;29;20128;-78
2022/01/15 10:57:59;;;;;;;17.45;10.27;;;5.60;80.70;;;;;;4914136;29;20483;-78
2022/01/15 11:00:34;;;;;;;16.20;10.57;;;5.50;80.70;;;;;;4916403;29;20052;-79
2022/01/15 11:03:02;;;;;;;16.42;11.52;;;5.50;80.80;;;;;;4916588;29;20044;-78
2022/01/15 11:05:48;;;;;;;15.50;10.38;;;5.50;81.00;;;;;;4914563;29;20569;-78
2022/01/15 11:08:23;;;;;;;17.55;11.70;;;5.60;81.20;;;;;;4915723;29;20070;-78
2022/01/15 11:11:01;;;;;;;17.23;11.85;;;5.60;81.30;;;;;;4914005;29;20092;-78
2022/01/15 11:13:31;;;;;;;22.00;13.38;;;5.60;81.30;;;;;;4897442;29;20043;-88
2022/01/15 11:16:04;;;;;;;18.88;12.07;;;5.60;81.30;;;;;;4895170;29;20432;-85
2022/01/15 11:18:32;;;;;;;17.45;11.90;;;5.60;81.30;;;;;;4897209;29;20040;-78
2022/01/15 11:21:02;;;;;;;20.33;12.50;;;5.60;81.00;;;;;;4914820;29;20092;-78
2022/01/15 11:23:29;;;;;;;16.98;11.90;;;5.60;80.90;;;;;;4901020;29;20041;-78
2022/01/15 11:25:57;;;;;;;18.88;12.70;;;5.60;80.70;;;;;;4900310;29;20126;-78
2022/01/15 11:28:26;;;;;;;19.90;12.63;;;5.60;80.70;;;;;;4917416;29;20048;-79
2022/01/15 11:30:58;;;;;;;47.42;15.82;;;5.50;80.50;;;;;;4901219;29;20103;-86
2022/01/15 11:33:30;;;;;;;22.45;14.05;;;5.60;80.80;;;;;;4901012;29;20473;-85
2022/01/15 11:35:56;;;;;;;23.08;14.65;;;5.50;80.70;;;;;;4911588;29;20048;-85
2022/01/15 11:38:37;;;;;;;23.92;15.00;;;5.60;80.80;;;;;;4901175;29;20100;-84
2022/01/15 11:41:03;;;;;;;21.27;13.27;;;5.50;81.00;;;;;;4915061;29;20066;-84
2022/01/15 11:43:38;;;;;;;27.60;14.60;;;5.40;81.00;;;;;;4898953;29;20488;-85
2022/01/15 11:46:41;;;;;;;20.75;13.30;;;5.80;81.40;;;;;;4916508;29;20123;-85
2022/01/15 11:49:30;;;;;;;27.65;14.98;;;5.40;81.30;;;;;;4914040;29;20496;-84
2022/01/15 11:52:12;;;;;;;21.63;13.65;;;5.40;81.20;;;;;;4890709;29;20064;-83
2022/01/15 11:55:05;;;;;;;23.50;14.45;;;5.40;81.20;;;;;;4905615;29;20514;-84
2022/01/15 11:57:33;;;;;;;21.63;13.88;;;5.40;81.20;;;;;;4899984;29;20059;-84
2022/01/15 12:00:03;;;;;;;25.15;15.73;;;5.40;81.10;;;;;;4900320;29;20067;-85
2022/01/15 12:02:37;;;;;;;24.50;14.40;;;5.40;81.10;;;;;;4900470;29;20396;-84
2022/01/15 12:05:18;;;;;;;24.63;15.32;;;5.40;81.20;;;;;;4883012;29;20407;-84
2022/01/15 12:07:59;;;;;;;26.13;15.30;;;5.40;81.30;;;;;;4915569;29;20091;-84
2022/01/15 12:10:43;;;;;;;27.13;15.75;;;5.30;81.30;;;;;;4900730;29;20048;-84
2022/01/15 12:13:20;;;;;;;25.75;15.32;;;5.40;81.30;;;;;;4899395;29;20081;-84
2022/01/15 12:16:07;;;;;;;26.88;15.73;;;5.30;81.50;;;;;;4899586;29;20484;-87
2022/01/15 12:18:47;;;;;;;27.15;16.20;;;5.30;81.20;;;;;;4898935;29;20100;-86
2022/01/15 12:21:44;;;;;;;26.25;14.60;;;5.30;81.30;;;;;;4899818;29;20488;-86
2022/01/15 12:24:49;;;;;;;28.15;15.63;;;5.30;81.40;;;;;;4881245;29;20053;-85
2022/01/15 12:27:16;;;;;;;28.80;16.40;;;5.60;81.60;;;;;;4821003;29;20140;-87
2022/01/15 12:29:43;;;;;;;29.50;16.65;;;5.30;81.40;;;;;;4814004;29;20049;-86
2022/01/15 12:32:09;;;;;;;28.13;15.90;;;5.40;81.50;;;;;;4839421;29;20140;-86
2022/01/15 12:34:35;;;;;;;31.60;17.10;;;5.70;81.80;;;;;;4840987;29;20057;-86
2022/01/15 12:37:02;;;;;;;29.02;15.52;;;5.60;81.60;;;;;;4853850;29;20101;-86
2022/01/15 12:39:39;;;;;;;33.17;16.75;;;5.30;81.50;;;;;;4808024;29;20137;-86
2022/01/15 12:42:06;;;;;;;30.75;17.40;;;5.60;81.90;;;;;;4821362;29;20114;-86
2022/01/15 12:44:51;;;;;;;31.75;16.73;;;5.30;81.60;;;;;;4824456;29;20526;-86
2022/01/15 12:47:17;;;;;;;34.85;16.42;;;5.60;81.80;;;;;;4817204;29;20129;-84
2022/01/15 12:49:51;;;;;;;32.28;16.30;;;5.30;81.50;;;;;;4814175;29;20141;-85
2022/01/15 12:52:23;;;;;;;30.02;16.10;;;5.30;81.70;;;;;;4828159;29;20187;-87
2022/01/15 12:54:55;;;;;;;33.17;16.60;;;5.30;81.60;;;;;;4827340;29;20142;-87
2022/01/15 12:57:40;;;;;;;31.02;15.68;;;5.20;81.60;;;;;;4827848;29;20058;-86
2022/01/15 13:00:21;;;;;;;32.90;16.27;;;5.30;81.80;;;;;;4849912;29;20486;-87
2022/01/15 13:02:48;;;;;;;35.08;17.17;;;5.20;81.60;;;;;;4866894;29;20091;-79
2022/01/15 13:05:14;;;;;;;35.35;16.23;;;5.20;81.50;;;;;;4935011;29;20052;-86
2022/01/15 13:07:55;;;;;;;33.50;16.45;;;5.20;81.50;;;;;;4917746;29;20040;-87
2022/01/15 13:10:34;;;;;;;36.92;18.55;;;5.20;81.80;;;;;;4902442;29;20131;-85
2022/01/15 13:26:26;;;;;;;34.10;18.48;;;5.30;81.90;;;;;;5748271;23;20391;-84
2022/01/15 13:29:02;;;;;;;33.80;18.02;;;5.30;82.00;;;;;;4908640;29;20056;-84
2022/01/15 13:31:35;;;;;;;33.42;17.50;;;5.30;81.90;;;;;;4899268;29;20080;-85
2022/01/15 13:34:13;;;;;;;33.78;17.80;;;5.60;82.20;;;;;;4889461;29;20036;-84
2022/01/15 13:36:40;;;;;;;36.78;19.00;;;5.30;82.00;;;;;;4873712;29;20072;-88
2022/01/15 13:39:07;;;;;;;31.27;17.83;;;5.50;81.90;;;;;;4911326;29;20040;-87